sensor_id;sensor_type;location;lat;lon;timestamp;P1;durP1;ratioP1;P2;durP2;ratioP2
75417;SDS011;63997;52.112;5.420;2024-02-26T00:00:33;4.65;;;2.42;;
75417;SDS011;63997;52.112;5.420;2024-02-26T00:03:01;3.70;;;2.27;;
75417;SDS011;63997;52.112;5.420;2024-02-26T00:05:28;5.15;;;2.45;;
75417;SDS011;63997;52.112;5.420;2024-02-26T00:07:54;3.63;;;2.05;;
75417;SDS011;63997;52.112;5.420;2024-02-26T00:10:22;2.75;;;2.08;;
75417;SDS011;63997;52.112;5.420;2024-02-26T00:12:48;3.85;;;2.20;;
75417;SDS011;63997;52.112;5.420;2024-02-26T00:15:15;2.13;;;1.93;;
75417;SDS011;63997;52.112;5.420;2024-02-26T00:17:42;3.22;;;2.50;;
75417;SDS011;63997;52.112;5.420;2024-02-26T00:20:10;2.90;;;2.50;;
75417;SDS011;63997;52.112;5.420;2024-02-26T00:22:37;3.15;;;2.72;;
75417;SDS011;63997;52.112;5.420;2024-02-26T00:25:03;4.65;;;2.55;;
75417;SDS011;63997;52.112;5.420;2024-02-26T00:27:30;5.60;;;3.03;;
75417;SDS011;63997;52.112;5.420;2024-02-26T00:29:57;2.63;;;2.42;;
75417;SDS011;63997;52.112;5.420;2024-02-26T00:32:23;5.15;;;2.97;;
75417;SDS011;63997;52.112;5.420;2024-02-26T00:34:50;4.68;;;2.90;;
75417;SDS011;63997;52.112;5.420;2024-02-26T00:37:17;3.67;;;2.63;;
75417;SDS011;63997;52.112;5.420;2024-02-26T00:39:43;3.47;;;2.70;;
75417;SDS011;63997;52.112;5.420;2024-02-26T00:42:11;3.10;;;2.67;;
75417;SDS011;63997;52.112;5.420;2024-02-26T00:44:43;3.15;;;2.67;;
75417;SDS011;63997;52.112;5.420;2024-02-26T00:47:10;7.05;;;3.15;;
75417;SDS011;63997;52.112;5.420;2024-02-26T00:49:37;4.20;;;2.83;;
75417;SDS011;63997;52.112;5.420;2024-02-26T00:52:03;3.50;;;2.87;;
75417;SDS011;63997;52.112;5.420;2024-02-26T00:54:30;3.65;;;3.00;;
75417;SDS011;63997;52.112;5.420;2024-02-26T00:56:57;4.53;;;3.08;;
75417;SDS011;63997;52.112;5.420;2024-02-26T00:59:23;3.28;;;2.92;;
75417;SDS011;63997;52.112;5.420;2024-02-26T01:01:50;4.55;;;3.08;;
75417;SDS011;63997;52.112;5.420;2024-02-26T01:04:16;5.00;;;2.90;;
75417;SDS011;63997;52.112;5.420;2024-02-26T01:06:44;3.60;;;3.30;;
75417;SDS011;63997;52.112;5.420;2024-02-26T01:09:10;4.05;;;3.45;;
75417;SDS011;63997;52.112;5.420;2024-02-26T01:11:37;4.53;;;3.30;;
75417;SDS011;63997;52.112;5.420;2024-02-26T01:14:03;5.85;;;3.10;;
75417;SDS011;63997;52.112;5.420;2024-02-26T01:16:31;4.77;;;2.93;;
75417;SDS011;63997;52.112;5.420;2024-02-26T01:18:58;4.80;;;3.08;;
75417;SDS011;63997;52.112;5.420;2024-02-26T01:21:24;4.07;;;3.33;;
75417;SDS011;63997;52.112;5.420;2024-02-26T01:23:51;3.80;;;3.45;;
75417;SDS011;63997;52.112;5.420;2024-02-26T01:26:19;3.35;;;3.00;;
75417;SDS011;63997;52.112;5.420;2024-02-26T01:28:45;3.90;;;3.30;;
75417;SDS011;63997;52.112;5.420;2024-02-26T01:31:11;4.82;;;3.28;;
75417;SDS011;63997;52.112;5.420;2024-02-26T01:33:38;4.78;;;3.28;;
75417;SDS011;63997;52.112;5.420;2024-02-26T01:36:05;3.97;;;3.50;;
75417;SDS011;63997;52.112;5.420;2024-02-26T01:38:31;5.45;;;3.35;;
75417;SDS011;63997;52.112;5.420;2024-02-26T01:40:58;3.40;;;3.10;;
75417;SDS011;63997;52.112;5.420;2024-02-26T01:43:24;5.47;;;4.05;;
75417;SDS011;63997;52.112;5.420;2024-02-26T01:45:51;4.50;;;3.80;;
75417;SDS011;63997;52.112;5.420;2024-02-26T01:48:18;4.65;;;3.13;;
75417;SDS011;63997;52.112;5.420;2024-02-26T01:50:44;5.15;;;3.70;;
75417;SDS011;63997;52.112;5.420;2024-02-26T01:53:11;4.60;;;3.17;;
75417;SDS011;63997;52.112;5.420;2024-02-26T01:55:41;6.03;;;3.80;;
75417;SDS011;63997;52.112;5.420;2024-02-26T01:58:08;3.95;;;3.55;;
75417;SDS011;63997;52.112;5.420;2024-02-26T02:00:35;5.07;;;4.15;;
75417;SDS011;63997;52.112;5.420;2024-02-26T02:03:03;4.50;;;3.72;;
75417;SDS011;63997;52.112;5.420;2024-02-26T02:05:30;4.27;;;3.40;;
75417;SDS011;63997;52.112;5.420;2024-02-26T02:07:57;5.20;;;3.55;;
75417;SDS011;63997;52.112;5.420;2024-02-26T02:10:25;4.72;;;3.42;;
75417;SDS011;63997;52.112;5.420;2024-02-26T02:12:53;4.57;;;3.97;;
75417;SDS011;63997;52.112;5.420;2024-02-26T02:15:23;5.93;;;3.92;;
75417;SDS011;63997;52.112;5.420;2024-02-26T02:17:50;5.10;;;3.70;;
75417;SDS011;63997;52.112;5.420;2024-02-26T02:20:24;4.95;;;3.83;;
75417;SDS011;63997;52.112;5.420;2024-02-26T02:22:53;6.70;;;3.90;;
75417;SDS011;63997;52.112;5.420;2024-02-26T02:25:24;4.75;;;3.63;;
75417;SDS011;63997;52.112;5.420;2024-02-26T02:27:51;4.57;;;3.40;;
75417;SDS011;63997;52.112;5.420;2024-02-26T02:30:20;5.50;;;3.40;;
75417;SDS011;63997;52.112;5.420;2024-02-26T02:32:48;4.70;;;3.20;;
75417;SDS011;63997;52.112;5.420;2024-02-26T02:35:17;4.22;;;3.45;;
75417;SDS011;63997;52.112;5.420;2024-02-26T02:37:43;5.30;;;3.25;;
75417;SDS011;63997;52.112;5.420;2024-02-26T02:40:10;4.78;;;3.47;;
75417;SDS011;63997;52.112;5.420;2024-02-26T02:42:36;4.57;;;3.73;;
75417;SDS011;63997;52.112;5.420;2024-02-26T02:45:03;6.35;;;3.75;;
75417;SDS011;63997;52.112;5.420;2024-02-26T02:47:30;5.43;;;3.38;;
75417;SDS011;63997;52.112;5.420;2024-02-26T02:49:57;4.30;;;3.50;;
75417;SDS011;63997;52.112;5.420;2024-02-26T02:52:23;5.20;;;3.50;;
75417;SDS011;63997;52.112;5.420;2024-02-26T02:54:50;5.47;;;3.17;;
75417;SDS011;63997;52.112;5.420;2024-02-26T02:57:16;4.55;;;3.53;;
75417;SDS011;63997;52.112;5.420;2024-02-26T02:59:43;6.90;;;3.75;;
75417;SDS011;63997;52.112;5.420;2024-02-26T03:02:09;5.45;;;3.70;;
75417;SDS011;63997;52.112;5.420;2024-02-26T03:04:36;4.80;;;3.72;;
75417;SDS011;63997;52.112;5.420;2024-02-26T03:07:02;6.43;;;3.60;;
75417;SDS011;63997;52.112;5.420;2024-02-26T03:09:29;5.55;;;3.00;;
75417;SDS011;63997;52.112;5.420;2024-02-26T03:11:56;5.50;;;3.40;;
75417;SDS011;63997;52.112;5.420;2024-02-26T03:14:23;6.75;;;3.72;;
75417;SDS011;63997;52.112;5.420;2024-02-26T03:16:52;8.13;;;3.75;;
75417;SDS011;63997;52.112;5.420;2024-02-26T03:19:20;10.20;;;4.43;;
75417;SDS011;63997;52.112;5.420;2024-02-26T03:21:47;6.88;;;4.40;;
75417;SDS011;63997;52.112;5.420;2024-02-26T03:24:13;6.47;;;4.30;;
75417;SDS011;63997;52.112;5.420;2024-02-26T03:26:41;4.70;;;3.95;;
75417;SDS011;63997;52.112;5.420;2024-02-26T03:29:07;6.30;;;3.75;;
75417;SDS011;63997;52.112;5.420;2024-02-26T03:31:34;6.27;;;3.97;;
75417;SDS011;63997;52.112;5.420;2024-02-26T03:34:00;6.45;;;4.28;;
75417;SDS011;63997;52.112;5.420;2024-02-26T03:36:28;4.95;;;4.18;;
75417;SDS011;63997;52.112;5.420;2024-02-26T03:38:54;6.90;;;3.92;;
75417;SDS011;63997;52.112;5.420;2024-02-26T03:41:21;8.15;;;4.10;;
75417;SDS011;63997;52.112;5.420;2024-02-26T03:43:48;5.30;;;4.10;;
75417;SDS011;63997;52.112;5.420;2024-02-26T03:46:17;7.32;;;4.60;;
75417;SDS011;63997;52.112;5.420;2024-02-26T03:48:44;5.38;;;3.95;;
75417;SDS011;63997;52.112;5.420;2024-02-26T03:51:11;7.32;;;5.07;;
75417;SDS011;63997;52.112;5.420;2024-02-26T03:53:37;7.03;;;4.40;;
75417;SDS011;63997;52.112;5.420;2024-02-26T03:56:04;8.50;;;4.90;;
75417;SDS011;63997;52.112;5.420;2024-02-26T03:58:31;7.18;;;4.72;;
75417;SDS011;63997;52.112;5.420;2024-02-26T04:00:59;8.63;;;5.60;;
75417;SDS011;63997;52.112;5.420;2024-02-26T04:03:26;8.20;;;4.30;;
75417;SDS011;63997;52.112;5.420;2024-02-26T04:05:53;7.47;;;4.53;;
75417;SDS011;63997;52.112;5.420;2024-02-26T04:08:20;8.60;;;5.00;;
75417;SDS011;63997;52.112;5.420;2024-02-26T04:10:46;7.93;;;4.95;;
75417;SDS011;63997;52.112;5.420;2024-02-26T04:13:13;6.28;;;4.25;;
75417;SDS011;63997;52.112;5.420;2024-02-26T04:15:39;9.85;;;4.93;;
75417;SDS011;63997;52.112;5.420;2024-02-26T04:18:06;9.55;;;4.47;;
75417;SDS011;63997;52.112;5.420;2024-02-26T04:20:33;7.40;;;4.67;;
75417;SDS011;63997;52.112;5.420;2024-02-26T04:22:59;7.07;;;4.93;;
75417;SDS011;63997;52.112;5.420;2024-02-26T04:25:26;7.28;;;4.85;;
75417;SDS011;63997;52.112;5.420;2024-02-26T04:27:53;7.03;;;4.57;;
75417;SDS011;63997;52.112;5.420;2024-02-26T04:30:19;8.88;;;5.50;;
75417;SDS011;63997;52.112;5.420;2024-02-26T04:32:46;10.23;;;4.83;;
75417;SDS011;63997;52.112;5.420;2024-02-26T04:35:13;7.88;;;4.70;;
75417;SDS011;63997;52.112;5.420;2024-02-26T04:37:39;6.85;;;5.05;;
75417;SDS011;63997;52.112;5.420;2024-02-26T04:40:06;6.38;;;4.57;;
75417;SDS011;63997;52.112;5.420;2024-02-26T04:42:34;7.10;;;4.70;;
75417;SDS011;63997;52.112;5.420;2024-02-26T04:45:02;6.43;;;4.70;;
75417;SDS011;63997;52.112;5.420;2024-02-26T04:47:29;6.68;;;4.70;;
75417;SDS011;63997;52.112;5.420;2024-02-26T04:49:56;7.07;;;4.50;;
75417;SDS011;63997;52.112;5.420;2024-02-26T04:52:23;7.97;;;4.50;;
75417;SDS011;63997;52.112;5.420;2024-02-26T04:54:50;7.05;;;4.18;;
75417;SDS011;63997;52.112;5.420;2024-02-26T04:57:16;10.40;;;4.87;;
75417;SDS011;63997;52.112;5.420;2024-02-26T04:59:44;5.78;;;4.13;;
75417;SDS011;63997;52.112;5.420;2024-02-26T05:02:12;7.47;;;4.32;;
75417;SDS011;63997;52.112;5.420;2024-02-26T05:04:40;8.23;;;4.82;;
75417;SDS011;63997;52.112;5.420;2024-02-26T05:07:07;5.00;;;3.80;;
75417;SDS011;63997;52.112;5.420;2024-02-26T05:09:34;6.43;;;4.57;;
75417;SDS011;63997;52.112;5.420;2024-02-26T05:12:00;6.55;;;4.18;;
75417;SDS011;63997;52.112;5.420;2024-02-26T05:14:27;7.05;;;5.13;;
75417;SDS011;63997;52.112;5.420;2024-02-26T05:16:54;7.10;;;4.88;;
75417;SDS011;63997;52.112;5.420;2024-02-26T05:19:20;9.32;;;4.95;;
75417;SDS011;63997;52.112;5.420;2024-02-26T05:21:47;10.63;;;4.97;;
75417;SDS011;63997;52.112;5.420;2024-02-26T05:24:15;6.00;;;4.63;;
75417;SDS011;63997;52.112;5.420;2024-02-26T05:26:44;7.90;;;5.28;;
75417;SDS011;63997;52.112;5.420;2024-02-26T05:29:12;7.65;;;4.30;;
75417;SDS011;63997;52.112;5.420;2024-02-26T05:31:38;11.02;;;5.40;;
75417;SDS011;63997;52.112;5.420;2024-02-26T05:34:05;7.00;;;4.13;;
75417;SDS011;63997;52.112;5.420;2024-02-26T05:36:34;10.20;;;5.18;;
75417;SDS011;63997;52.112;5.420;2024-02-26T05:39:00;7.07;;;4.68;;
75417;SDS011;63997;52.112;5.420;2024-02-26T05:41:28;6.43;;;4.78;;
75417;SDS011;63997;52.112;5.420;2024-02-26T05:43:54;8.32;;;5.13;;
75417;SDS011;63997;52.112;5.420;2024-02-26T05:46:21;8.90;;;5.90;;
75417;SDS011;63997;52.112;5.420;2024-02-26T05:48:52;9.10;;;5.38;;
75417;SDS011;63997;52.112;5.420;2024-02-26T05:51:19;7.25;;;4.72;;
75417;SDS011;63997;52.112;5.420;2024-02-26T05:53:46;8.82;;;5.18;;
75417;SDS011;63997;52.112;5.420;2024-02-26T05:56:23;9.98;;;5.57;;
75417;SDS011;63997;52.112;5.420;2024-02-26T05:58:49;9.23;;;5.70;;
75417;SDS011;63997;52.112;5.420;2024-02-26T06:01:16;7.45;;;5.03;;
75417;SDS011;63997;52.112;5.420;2024-02-26T06:03:44;7.88;;;5.18;;
75417;SDS011;63997;52.112;5.420;2024-02-26T06:06:11;9.75;;;6.07;;
75417;SDS011;63997;52.112;5.420;2024-02-26T06:08:38;7.30;;;5.25;;
75417;SDS011;63997;52.112;5.420;2024-02-26T06:11:05;9.43;;;5.90;;
75417;SDS011;63997;52.112;5.420;2024-02-26T06:13:34;10.55;;;6.28;;
75417;SDS011;63997;52.112;5.420;2024-02-26T06:16:02;9.15;;;6.00;;
75417;SDS011;63997;52.112;5.420;2024-02-26T06:18:28;12.52;;;6.28;;
75417;SDS011;63997;52.112;5.420;2024-02-26T06:20:55;7.38;;;5.13;;
75417;SDS011;63997;52.112;5.420;2024-02-26T06:23:22;11.63;;;6.20;;
75417;SDS011;63997;52.112;5.420;2024-02-26T06:25:49;9.70;;;6.20;;
75417;SDS011;63997;52.112;5.420;2024-02-26T06:28:16;9.55;;;5.32;;
75417;SDS011;63997;52.112;5.420;2024-02-26T06:30:42;10.70;;;5.88;;
75417;SDS011;63997;52.112;5.420;2024-02-26T06:33:09;9.68;;;5.35;;
75417;SDS011;63997;52.112;5.420;2024-02-26T06:38:08;9.63;;;6.20;;
75417;SDS011;63997;52.112;5.420;2024-02-26T06:40:35;11.68;;;6.57;;
75417;SDS011;63997;52.112;5.420;2024-02-26T06:43:02;12.38;;;6.70;;
75417;SDS011;63997;52.112;5.420;2024-02-26T06:45:29;11.10;;;6.18;;
75417;SDS011;63997;52.112;5.420;2024-02-26T06:47:56;13.63;;;7.43;;
75417;SDS011;63997;52.112;5.420;2024-02-26T06:50:23;13.35;;;6.60;;
75417;SDS011;63997;52.112;5.420;2024-02-26T06:52:49;11.90;;;6.82;;
75417;SDS011;63997;52.112;5.420;2024-02-26T06:55:17;16.33;;;6.57;;
75417;SDS011;63997;52.112;5.420;2024-02-26T06:57:43;12.05;;;6.40;;
75417;SDS011;63997;52.112;5.420;2024-02-26T07:00:10;11.97;;;6.63;;
75417;SDS011;63997;52.112;5.420;2024-02-26T07:02:44;12.05;;;6.35;;
75417;SDS011;63997;52.112;5.420;2024-02-26T07:05:10;15.75;;;6.95;;
75417;SDS011;63997;52.112;5.420;2024-02-26T07:07:37;13.05;;;7.28;;
75417;SDS011;63997;52.112;5.420;2024-02-26T07:10:04;12.48;;;7.25;;
75417;SDS011;63997;52.112;5.420;2024-02-26T07:12:35;15.67;;;8.13;;
75417;SDS011;63997;52.112;5.420;2024-02-26T07:15:02;16.88;;;7.95;;
75417;SDS011;63997;52.112;5.420;2024-02-26T07:17:29;15.07;;;7.90;;
75417;SDS011;63997;52.112;5.420;2024-02-26T07:19:56;12.85;;;7.45;;
75417;SDS011;63997;52.112;5.420;2024-02-26T07:22:23;16.05;;;7.38;;
75417;SDS011;63997;52.112;5.420;2024-02-26T07:24:51;14.90;;;7.67;;
75417;SDS011;63997;52.112;5.420;2024-02-26T07:27:18;18.25;;;8.20;;
75417;SDS011;63997;52.112;5.420;2024-02-26T07:29:45;18.77;;;8.07;;
75417;SDS011;63997;52.112;5.420;2024-02-26T07:32:11;16.13;;;7.35;;
75417;SDS011;63997;52.112;5.420;2024-02-26T07:34:39;19.02;;;9.20;;
75417;SDS011;63997;52.112;5.420;2024-02-26T07:37:08;15.83;;;8.37;;
75417;SDS011;63997;52.112;5.420;2024-02-26T07:39:35;15.80;;;8.35;;
75417;SDS011;63997;52.112;5.420;2024-02-26T07:42:02;18.92;;;8.70;;
75417;SDS011;63997;52.112;5.420;2024-02-26T07:44:29;15.63;;;8.43;;
75417;SDS011;63997;52.112;5.420;2024-02-26T07:46:56;21.67;;;10.00;;
75417;SDS011;63997;52.112;5.420;2024-02-26T07:49:22;17.00;;;9.00;;
75417;SDS011;63997;52.112;5.420;2024-02-26T07:51:49;18.17;;;8.90;;
75417;SDS011;63997;52.112;5.420;2024-02-26T07:54:15;20.05;;;8.85;;
75417;SDS011;63997;52.112;5.420;2024-02-26T07:56:44;26.00;;;10.30;;
75417;SDS011;63997;52.112;5.420;2024-02-26T07:59:11;18.30;;;9.90;;
75417;SDS011;63997;52.112;5.420;2024-02-26T08:01:38;18.20;;;9.20;;
75417;SDS011;63997;52.112;5.420;2024-02-26T08:04:05;18.50;;;9.07;;
75417;SDS011;63997;52.112;5.420;2024-02-26T08:06:32;16.73;;;9.10;;
75417;SDS011;63997;52.112;5.420;2024-02-26T08:09:03;21.17;;;10.38;;
75417;SDS011;63997;52.112;5.420;2024-02-26T08:11:30;18.75;;;10.32;;
75417;SDS011;63997;52.112;5.420;2024-02-26T08:13:57;19.10;;;9.80;;
75417;SDS011;63997;52.112;5.420;2024-02-26T08:16:25;20.35;;;9.63;;
75417;SDS011;63997;52.112;5.420;2024-02-26T08:18:53;19.77;;;9.45;;
75417;SDS011;63997;52.112;5.420;2024-02-26T08:21:20;17.45;;;9.48;;
75417;SDS011;63997;52.112;5.420;2024-02-26T08:23:46;19.42;;;8.55;;
75417;SDS011;63997;52.112;5.420;2024-02-26T08:26:13;17.77;;;9.10;;
75417;SDS011;63997;52.112;5.420;2024-02-26T08:28:40;16.15;;;8.98;;
75417;SDS011;63997;52.112;5.420;2024-02-26T08:31:06;16.95;;;9.05;;
75417;SDS011;63997;52.112;5.420;2024-02-26T08:33:33;16.00;;;8.02;;
75417;SDS011;63997;52.112;5.420;2024-02-26T08:36:05;16.00;;;8.03;;
75417;SDS011;63997;52.112;5.420;2024-02-26T08:38:32;15.60;;;7.67;;
75417;SDS011;63997;52.112;5.420;2024-02-26T08:41:04;11.95;;;6.80;;
75417;SDS011;63997;52.112;5.420;2024-02-26T08:43:30;11.95;;;6.25;;
75417;SDS011;63997;52.112;5.420;2024-02-26T08:45:58;12.52;;;7.13;;
75417;SDS011;63997;52.112;5.420;2024-02-26T08:48:34;11.70;;;7.05;;
75417;SDS011;63997;52.112;5.420;2024-02-26T08:51:04;9.37;;;5.60;;
75417;SDS011;63997;52.112;5.420;2024-02-26T08:53:31;9.75;;;5.20;;
75417;SDS011;63997;52.112;5.420;2024-02-26T08:56:07;9.98;;;6.07;;
75417;SDS011;63997;52.112;5.420;2024-02-26T08:58:34;10.13;;;6.13;;
75417;SDS011;63997;52.112;5.420;2024-02-26T09:01:02;8.43;;;5.32;;
75417;SDS011;63997;52.112;5.420;2024-02-26T09:03:31;10.30;;;6.27;;
75417;SDS011;63997;52.112;5.420;2024-02-26T09:05:58;10.35;;;6.07;;
75417;SDS011;63997;52.112;5.420;2024-02-26T09:08:25;8.48;;;5.28;;
75417;SDS011;63997;52.112;5.420;2024-02-26T09:10:51;7.55;;;5.13;;
75417;SDS011;63997;52.112;5.420;2024-02-26T09:13:18;8.88;;;5.70;;
75417;SDS011;63997;52.112;5.420;2024-02-26T09:15:45;7.43;;;4.63;;
75417;SDS011;63997;52.112;5.420;2024-02-26T09:18:12;8.20;;;5.13;;
75417;SDS011;63997;52.112;5.420;2024-02-26T09:20:39;10.63;;;5.10;;
75417;SDS011;63997;52.112;5.420;2024-02-26T09:23:06;9.10;;;5.03;;
75417;SDS011;63997;52.112;5.420;2024-02-26T09:25:32;7.28;;;4.68;;
75417;SDS011;63997;52.112;5.420;2024-02-26T09:28:02;9.83;;;4.97;;
75417;SDS011;63997;52.112;5.420;2024-02-26T09:30:29;8.50;;;5.40;;
75417;SDS011;63997;52.112;5.420;2024-02-26T09:32:56;6.85;;;4.60;;
75417;SDS011;63997;52.112;5.420;2024-02-26T09:35:23;6.93;;;4.10;;
75417;SDS011;63997;52.112;5.420;2024-02-26T09:37:50;8.43;;;4.63;;
75417;SDS011;63997;52.112;5.420;2024-02-26T09:40:16;10.00;;;5.23;;
75417;SDS011;63997;52.112;5.420;2024-02-26T09:42:44;7.47;;;4.85;;
75417;SDS011;63997;52.112;5.420;2024-02-26T09:45:18;6.75;;;4.38;;
75417;SDS011;63997;52.112;5.420;2024-02-26T09:47:47;7.03;;;5.07;;
75417;SDS011;63997;52.112;5.420;2024-02-26T09:50:14;9.98;;;5.20;;
75417;SDS011;63997;52.112;5.420;2024-02-26T09:52:44;6.53;;;4.43;;
75417;SDS011;63997;52.112;5.420;2024-02-26T09:55:10;8.02;;;4.75;;
75417;SDS011;63997;52.112;5.420;2024-02-26T09:57:37;5.53;;;4.03;;
75417;SDS011;63997;52.112;5.420;2024-02-26T10:00:04;7.53;;;4.32;;
75417;SDS011;63997;52.112;5.420;2024-02-26T10:02:36;7.88;;;4.53;;
75417;SDS011;63997;52.112;5.420;2024-02-26T10:05:05;4.90;;;4.20;;
75417;SDS011;63997;52.112;5.420;2024-02-26T10:07:36;7.30;;;4.13;;
75417;SDS011;63997;52.112;5.420;2024-02-26T10:10:03;4.97;;;3.50;;
75417;SDS011;63997;52.112;5.420;2024-02-26T10:12:30;7.65;;;4.20;;
75417;SDS011;63997;52.112;5.420;2024-02-26T10:14:58;6.88;;;3.90;;
75417;SDS011;63997;52.112;5.420;2024-02-26T10:17:25;5.33;;;3.33;;
75417;SDS011;63997;52.112;5.420;2024-02-26T10:19:52;6.57;;;3.75;;
75417;SDS011;63997;52.112;5.420;2024-02-26T10:22:22;7.63;;;3.80;;
75417;SDS011;63997;52.112;5.420;2024-02-26T10:24:49;6.82;;;3.25;;
75417;SDS011;63997;52.112;5.420;2024-02-26T10:27:16;5.32;;;3.58;;
75417;SDS011;63997;52.112;5.420;2024-02-26T10:29:42;5.30;;;3.43;;
75417;SDS011;63997;52.112;5.420;2024-02-26T10:32:09;7.47;;;3.78;;
75417;SDS011;63997;52.112;5.420;2024-02-26T10:34:39;6.75;;;3.95;;
75417;SDS011;63997;52.112;5.420;2024-02-26T10:37:08;6.15;;;4.00;;
75417;SDS011;63997;52.112;5.420;2024-02-26T10:39:36;7.20;;;3.85;;
75417;SDS011;63997;52.112;5.420;2024-02-26T10:42:03;7.23;;;3.97;;
75417;SDS011;63997;52.112;5.420;2024-02-26T10:44:35;6.53;;;4.57;;
75417;SDS011;63997;52.112;5.420;2024-02-26T10:47:02;6.15;;;4.05;;
75417;SDS011;63997;52.112;5.420;2024-02-26T10:49:29;7.43;;;3.45;;
75417;SDS011;63997;52.112;5.420;2024-02-26T10:51:56;5.20;;;3.55;;
75417;SDS011;63997;52.112;5.420;2024-02-26T10:54:24;6.00;;;3.53;;
75417;SDS011;63997;52.112;5.420;2024-02-26T10:56:54;6.18;;;3.50;;
75417;SDS011;63997;52.112;5.420;2024-02-26T10:59:22;4.60;;;3.45;;
75417;SDS011;63997;52.112;5.420;2024-02-26T11:01:49;7.15;;;3.70;;
75417;SDS011;63997;52.112;5.420;2024-02-26T11:04:16;5.32;;;3.53;;
75417;SDS011;63997;52.112;5.420;2024-02-26T11:06:44;5.67;;;3.60;;
75417;SDS011;63997;52.112;5.420;2024-02-26T11:09:12;5.43;;;3.80;;
75417;SDS011;63997;52.112;5.420;2024-02-26T11:11:41;5.38;;;3.42;;
75417;SDS011;63997;52.112;5.420;2024-02-26T11:14:08;5.82;;;3.70;;
75417;SDS011;63997;52.112;5.420;2024-02-26T11:16:39;7.43;;;3.88;;
75417;SDS011;63997;52.112;5.420;2024-02-26T11:19:09;5.50;;;3.67;;
75417;SDS011;63997;52.112;5.420;2024-02-26T11:21:37;5.70;;;3.55;;
75417;SDS011;63997;52.112;5.420;2024-02-26T11:24:09;5.30;;;3.70;;
75417;SDS011;63997;52.112;5.420;2024-02-26T11:26:40;7.18;;;3.92;;
75417;SDS011;63997;52.112;5.420;2024-02-26T11:29:12;7.32;;;3.95;;
75417;SDS011;63997;52.112;5.420;2024-02-26T11:31:42;6.47;;;3.93;;
75417;SDS011;63997;52.112;5.420;2024-02-26T11:34:10;6.15;;;3.85;;
75417;SDS011;63997;52.112;5.420;2024-02-26T11:36:37;5.03;;;3.70;;
75417;SDS011;63997;52.112;5.420;2024-02-26T11:39:05;4.65;;;3.58;;
75417;SDS011;63997;52.112;5.420;2024-02-26T11:41:32;6.43;;;3.97;;
75417;SDS011;63997;52.112;5.420;2024-02-26T11:44:02;5.43;;;3.53;;
75417;SDS011;63997;52.112;5.420;2024-02-26T11:46:38;6.70;;;3.72;;
75417;SDS011;63997;52.112;5.420;2024-02-26T11:51:55;5.30;;;3.90;;
75417;SDS011;63997;52.112;5.420;2024-02-26T11:54:38;5.40;;;3.90;;
75417;SDS011;63997;52.112;5.420;2024-02-26T11:59:57;6.45;;;4.13;;
75417;SDS011;63997;52.112;5.420;2024-02-26T12:02:45;7.18;;;4.78;;
75417;SDS011;63997;52.112;5.420;2024-02-26T12:05:17;6.55;;;4.50;;
75417;SDS011;63997;52.112;5.420;2024-02-26T12:07:54;5.93;;;4.40;;
75417;SDS011;63997;52.112;5.420;2024-02-26T12:10:26;4.97;;;3.33;;
75417;SDS011;63997;52.112;5.420;2024-02-26T12:13:02;4.55;;;3.42;;
75417;SDS011;63997;52.112;5.420;2024-02-26T12:15:32;6.35;;;4.00;;
75417;SDS011;63997;52.112;5.420;2024-02-26T12:18:01;6.00;;;3.67;;
75417;SDS011;63997;52.112;5.420;2024-02-26T12:20:28;4.88;;;3.50;;
75417;SDS011;63997;52.112;5.420;2024-02-26T12:22:55;5.20;;;3.27;;
75417;SDS011;63997;52.112;5.420;2024-02-26T12:25:26;7.00;;;4.28;;
75417;SDS011;63997;52.112;5.420;2024-02-26T12:27:55;5.07;;;3.60;;
75417;SDS011;63997;52.112;5.420;2024-02-26T12:30:22;5.80;;;3.85;;
75417;SDS011;63997;52.112;5.420;2024-02-26T12:32:50;6.22;;;4.43;;
75417;SDS011;63997;52.112;5.420;2024-02-26T12:35:17;6.57;;;3.67;;
75417;SDS011;63997;52.112;5.420;2024-02-26T12:37:44;6.13;;;3.30;;
75417;SDS011;63997;52.112;5.420;2024-02-26T12:40:11;5.32;;;3.45;;
75417;SDS011;63997;52.112;5.420;2024-02-26T12:42:38;6.80;;;3.78;;
75417;SDS011;63997;52.112;5.420;2024-02-26T12:45:06;4.97;;;3.65;;
75417;SDS011;63997;52.112;5.420;2024-02-26T12:47:43;4.87;;;3.73;;
75417;SDS011;63997;52.112;5.420;2024-02-26T12:50:15;7.40;;;3.50;;
75417;SDS011;63997;52.112;5.420;2024-02-26T12:52:46;4.93;;;3.50;;
75417;SDS011;63997;52.112;5.420;2024-02-26T12:55:17;7.28;;;3.45;;
75417;SDS011;63997;52.112;5.420;2024-02-26T12:57:46;6.45;;;3.80;;
75417;SDS011;63997;52.112;5.420;2024-02-26T13:00:16;5.40;;;3.97;;
75417;SDS011;63997;52.112;5.420;2024-02-26T13:02:48;6.85;;;2.92;;
75417;SDS011;63997;52.112;5.420;2024-02-26T13:05:18;5.68;;;3.70;;
75417;SDS011;63997;52.112;5.420;2024-02-26T13:07:46;5.68;;;3.67;;
75417;SDS011;63997;52.112;5.420;2024-02-26T13:10:17;5.88;;;4.22;;
75417;SDS011;63997;52.112;5.420;2024-02-26T13:12:45;5.47;;;3.73;;
75417;SDS011;63997;52.112;5.420;2024-02-26T13:15:20;4.78;;;3.72;;
75417;SDS011;63997;52.112;5.420;2024-02-26T13:17:48;6.53;;;3.80;;
75417;SDS011;63997;52.112;5.420;2024-02-26T13:20:29;7.18;;;3.53;;
75417;SDS011;63997;52.112;5.420;2024-02-26T13:23:04;7.57;;;3.70;;
75417;SDS011;63997;52.112;5.420;2024-02-26T13:25:33;5.50;;;3.53;;
75417;SDS011;63997;52.112;5.420;2024-02-26T13:28:15;5.43;;;3.75;;
75417;SDS011;63997;52.112;5.420;2024-02-26T13:30:52;5.32;;;3.70;;
75417;SDS011;63997;52.112;5.420;2024-02-26T13:33:23;6.53;;;3.03;;
75417;SDS011;63997;52.112;5.420;2024-02-26T13:35:51;5.55;;;3.65;;
75417;SDS011;63997;52.112;5.420;2024-02-26T13:38:19;5.83;;;3.30;;
75417;SDS011;63997;52.112;5.420;2024-02-26T13:40:46;6.07;;;3.22;;
75417;SDS011;63997;52.112;5.420;2024-02-26T13:43:12;5.70;;;3.45;;
75417;SDS011;63997;52.112;5.420;2024-02-26T13:45:39;4.70;;;3.47;;
75417;SDS011;63997;52.112;5.420;2024-02-26T13:48:07;7.07;;;2.90;;
75417;SDS011;63997;52.112;5.420;2024-02-26T13:50:37;6.40;;;3.90;;
75417;SDS011;63997;52.112;5.420;2024-02-26T13:53:04;7.50;;;3.80;;
75417;SDS011;63997;52.112;5.420;2024-02-26T13:55:32;6.22;;;3.25;;
75417;SDS011;63997;52.112;5.420;2024-02-26T13:57:58;6.18;;;3.65;;
75417;SDS011;63997;52.112;5.420;2024-02-26T14:00:27;4.70;;;3.07;;
75417;SDS011;63997;52.112;5.420;2024-02-26T14:02:55;4.38;;;2.92;;
75417;SDS011;63997;52.112;5.420;2024-02-26T14:05:22;4.85;;;3.25;;
75417;SDS011;63997;52.112;5.420;2024-02-26T14:07:48;5.07;;;3.05;;
75417;SDS011;63997;52.112;5.420;2024-02-26T14:10:18;4.05;;;3.15;;
75417;SDS011;63997;52.112;5.420;2024-02-26T14:12:45;6.47;;;3.37;;
75417;SDS011;63997;52.112;5.420;2024-02-26T14:15:12;5.15;;;3.38;;
75417;SDS011;63997;52.112;5.420;2024-02-26T14:17:39;5.95;;;3.40;;
75417;SDS011;63997;52.112;5.420;2024-02-26T14:20:05;4.88;;;3.20;;
75417;SDS011;63997;52.112;5.420;2024-02-26T14:22:34;4.85;;;3.28;;
75417;SDS011;63997;52.112;5.420;2024-02-26T14:25:01;4.53;;;3.30;;
75417;SDS011;63997;52.112;5.420;2024-02-26T14:27:27;5.85;;;2.75;;
75417;SDS011;63997;52.112;5.420;2024-02-26T14:29:54;5.80;;;2.90;;
75417;SDS011;63997;52.112;5.420;2024-02-26T14:32:21;6.97;;;3.47;;
75417;SDS011;63997;52.112;5.420;2024-02-26T14:34:48;4.57;;;2.70;;
75417;SDS011;63997;52.112;5.420;2024-02-26T14:37:14;4.87;;;2.87;;
75417;SDS011;63997;52.112;5.420;2024-02-26T14:39:41;4.78;;;3.15;;
75417;SDS011;63997;52.112;5.420;2024-02-26T14:42:08;3.78;;;2.70;;
75417;SDS011;63997;52.112;5.420;2024-02-26T14:44:34;3.63;;;2.40;;
75417;SDS011;63997;52.112;5.420;2024-02-26T14:47:01;5.00;;;2.78;;
75417;SDS011;63997;52.112;5.420;2024-02-26T14:49:28;5.20;;;2.70;;
75417;SDS011;63997;52.112;5.420;2024-02-26T14:51:57;4.18;;;2.75;;
75417;SDS011;63997;52.112;5.420;2024-02-26T14:54:24;5.85;;;2.67;;
75417;SDS011;63997;52.112;5.420;2024-02-26T14:56:50;4.07;;;2.28;;